Time;durP1;ratioP1;P1;durP2;ratioP2;P2;SDS_P1;SDS_P2;PMS_P1;PMS_P2;Temp;Humidity;BMP_temperature;BMP_pressure;BME280_temperature;BME280_humidity;BME280_pressure;Samples;Min_cycle;Max_cycle;Signal;HPM_P1;HPM_P2
2024/01/25 00:04:16;;;;;;;44.90;23.27;;;;;;;-143.21;71.91;73914.91;4919082;29;20701;-94
2024/01/25 00:06:43;;;;;;;39.17;21.13;;;;;;;-143.21;70.96;73914.91;4922593;29;20737;-94
2024/01/25 00:09:10;;;;;;;35.87;19.47;;;;;;;-143.21;70.66;73897.03;4922672;29;20266;-92
2024/01/25 00:11:37;;;;;;;29.70;17.40;;;;;;;-143.21;69.99;73885.13;4921624;29;20267;-92
2024/01/25 00:14:04;;;;;;;30.10;18.00;;;;;;;-143.21;68.68;73881.16;4925389;29;20291;-92
2024/01/25 00:16:31;;;;;;;40.53;19.17;;;;;;;-143.21;68.97;73877.19;4925897;29;20254;-93
2024/01/25 00:18:58;;;;;;;37.60;19.23;;;;;;;-143.21;69.48;73859.34;4923447;29;20401;-94
2024/01/25 00:21:27;;;;;;;43.23;22.53;;;;;;;-143.21;71.08;73885.13;4922335;29;20233;-89
2024/01/25 00:23:54;;;;;;;42.67;21.70;;;;;;;-143.21;71.09;73903.00;4927010;29;20204;-91
2024/01/25 00:26:21;;;;;;;40.73;21.50;;;;;;;-143.21;72.74;73910.94;4931318;29;20203;-89
2024/01/25 00:28:48;;;;;;;39.03;21.53;;;;;;;-143.21;73.83;73920.84;4921885;29;20235;-92
2024/01/25 00:31:15;;;;;;;38.70;19.87;;;;;;;-143.21;73.80;73912.91;4919999;29;20214;-91
2024/01/25 00:33:42;;;;;;;36.57;21.30;;;;;;;-143.21;73.67;73899.03;4924715;29;20222;-91
2024/01/25 00:36:11;;;;;;;37.43;20.83;;;;;;;-143.21;73.96;73914.91;4930877;29;20203;-91
2024/01/25 00:41:22;;;;;;;37.40;18.73;;;;;;;-143.21;73.88;73920.84;4918375;29;20227;-91
2024/01/25 00:43:49;;;;;;;32.33;18.00;;;;;;;-143.21;73.62;73901.00;4927895;29;20206;-92
2024/01/25 00:46:16;;;;;;;30.77;17.70;;;;;;;-143.21;72.67;73881.16;4903436;29;20742;-91
2024/01/25 00:48:44;;;;;;;33.37;18.47;;;;;;;-143.21;72.40;73877.19;4927801;29;20253;-91
2024/01/25 00:51:16;;;;;;;34.53;18.03;;;;;;;-143.21;72.24;73879.19;4934727;29;20214;-92
2024/01/25 00:53:44;;;;;;;30.80;17.83;;;;;;;-143.21;72.56;73889.09;4922314;29;20206;-91
2024/01/25 00:56:13;;;;;;;30.50;18.00;;;;;;;-143.21;73.11;73869.25;4916263;29;20231;-92
2024/01/25 00:58:40;;;;;;;32.00;18.03;;;;;;;-143.21;73.34;73863.31;4919422;29;20211;-91
2024/01/25 01:01:09;;;;;;;35.40;18.65;;;;;;;-143.21;71.89;73849.41;4928036;29;20215;-92
2024/01/25 01:03:37;;;;;;;32.23;16.63;;;;;;;-143.21;72.23;73873.22;4918939;29;20406;-91
2024/01/25 01:06:04;;;;;;;27.97;16.77;;;;;;;-143.21;73.23;73901.00;4919296;29;20210;-92
2024/01/25 01:08:32;;;;;;;29.03;16.00;;;;;;;-143.21;72.93;73881.16;4924068;29;20214;-92
2024/01/25 01:11:00;;;;;;;30.10;15.17;;;;;;;-143.21;72.56;73849.41;4924721;29;20217;-92
2024/01/25 01:13:27;;;;;;;25.33;13.77;;;;;;;-143.21;72.50;73825.59;4919087;29;20267;-91
2024/01/25 01:15:57;;;;;;;21.13;11.80;;;;;;;-143.21;70.88;73849.41;4912764;29;20207;-91
2024/01/25 01:18:24;;;;;;;26.33;12.60;;;;;;;-143.21;71.83;73849.41;4914393;29;20203;-91
2024/01/25 01:20:50;;;;;;;21.23;10.77;;;;;;;-143.21;71.00;73819.66;4919260;29;20212;-89
2024/01/25 01:23:17;;;;;;;21.77;11.10;;;;;;;-143.21;70.23;73807.75;4914112;29;20721;-91
2024/01/25 01:25:44;;;;;;;27.67;13.90;;;;;;;-143.21;69.99;73779.97;4920197;29;20219;-90
2024/01/25 01:28:12;;;;;;;23.90;13.80;;;;;;;-143.21;70.06;73760.13;4917234;29;20667;-90
2024/01/25 01:30:41;;;;;;;20.37;11.80;;;;;;;-143.21;69.92;73768.06;4920553;29;20204;-92
2024/01/25 01:33:08;;;;;;;21.53;11.23;;;;;;;-143.21;71.54;73799.81;4926408;29;20204;-91
2024/01/25 01:35:35;;;;;;;22.47;11.70;;;;;;;-143.21;72.14;73803.78;4925353;29;20657;-92
2024/01/25 01:38:02;;;;;;;22.20;11.57;;;;;;;-143.21;71.92;73778.00;4927438;29;20236;-93
2024/01/25 01:40:29;;;;;;;21.03;11.30;;;;;;;-143.21;71.98;73770.06;4923727;29;20212;-94
2024/01/25 01:43:00;;;;;;;21.77;12.47;;;;;;;-143.21;72.19;73756.16;4938082;29;20740;-92
2024/01/25 01:45:29;;;;;;;17.47;9.70;;;;;;;-143.21;70.65;73748.22;4925877;29;20205;-91
2024/01/25 01:47:56;;;;;;;14.97;9.53;;;;;;;-143.21;71.14;73744.25;4919481;29;20681;-91
2024/01/25 01:50:24;;;;;;;15.53;9.17;;;;;;;-143.21;71.65;73740.28;4921907;29;20212;-90
2024/01/25 01:52:51;;;;;;;15.20;8.90;;;;;;;-143.21;71.55;73730.38;4924523;29;20201;-92
2024/01/25 01:55:18;;;;;;;18.47;9.27;;;;;;;-143.21;71.68;73720.47;4916772;29;20298;-91
2024/01/25 01:57:46;;;;;;;15.53;9.37;;;;;;;-143.21;71.05;73696.66;4918184;29;20212;-92
2024/01/25 02:00:18;;;;;;;17.47;9.67;;;;;;;-143.21;69.76;73686.72;4934560;29;20671;-93
2024/01/25 02:02:48;;;;;;;18.07;9.87;;;;;;;-143.21;71.16;73698.63;4905263;29;20236;-93
2024/01/25 02:05:15;;;;;;;20.67;10.90;;;;;;;-143.21;71.49;73708.56;4925280;29;20223;-91
2024/01/25 02:07:46;;;;;;;20.23;11.20;;;;;;;-143.21;71.44;73692.69;4921068;29;20314;-91
2024/01/25 02:10:13;;;;;;;20.43;11.20;;;;;;;-143.21;71.69;73690.69;4919478;29;20249;-92
2024/01/25 02:12:39;;;;;;;17.03;9.80;;;;;;;-143.21;70.39;73666.88;4918052;29;20562;-92
2024/01/25 02:15:07;;;;;;;20.30;10.33;;;;;;;-143.21;70.28;73686.72;4916154;29;20207;-91
2024/01/25 02:17:34;;;;;;;14.77;8.50;;;;;;;-143.21;70.96;73728.41;4913835;29;20252;-91
2024/01/25 02:20:03;;;;;;;19.73;9.67;;;;;;;-143.21;71.02;73716.50;4915419;29;20205;-91
2024/01/25 02:22:32;;;;;;;17.87;8.80;;;;;;;-143.21;70.76;73708.56;4916869;29;20232;-89
2024/01/25 02:24:59;;;;;;;13.10;8.20;;;;;;;-143.21;70.01;73682.75;4903317;29;20231;-91
2024/01/25 02:27:26;;;;;;;15.87;8.07;;;;;;;-143.21;69.42;73678.78;4919356;29;20219;-92
2024/01/25 02:29:53;;;;;;;7.93;5.20;;;;;;;-143.21;69.02;73655.00;4915478;29;20747;-92
2024/01/25 02:32:22;;;;;;;8.63;4.90;;;;;;;-143.21;68.37;73637.13;4913085;29;20609;-92
2024/01/25 02:34:49;;;;;;;6.73;4.27;;;;;;;-143.21;68.03;73625.22;4919700;29;20208;-90
2024/01/25 02:37:16;;;;;;;7.77;4.70;;;;;;;-143.21;67.81;73607.38;4918617;29;20218;-89
2024/01/25 02:39:45;;;;;;;7.53;4.13;;;;;;;-143.21;67.20;73603.41;4919779;29;20326;-93
2024/01/25 02:42:16;;;;;;;6.67;3.80;;;;;;;-143.21;67.25;73601.41;4926022;29;20259;-92
2024/01/25 02:44:43;;;;;;;7.83;3.80;;;;;;;-143.21;66.19;73571.66;4925115;29;20292;-93
2024/01/25 02:47:10;;;;;;;6.30;3.57;;;;;;;-143.21;65.62;73567.69;4920549;29;20211;-92
2024/01/25 02:49:37;;;;;;;4.17;3.07;;;;;;;-143.21;65.72;73559.75;4919178;29;20272;-92
2024/01/25 02:52:04;;;;;;;4.87;3.23;;;;;;;-143.21;65.42;73555.78;4924036;29;20202;-92
2024/01/25 02:54:31;;;;;;;5.33;3.30;;;;;;;-143.21;65.30;73535.94;4923545;29;20249;-92
2024/01/25 02:56:59;;;;;;;4.50;2.83;;;;;;;-143.21;65.33;73522.06;4917006;29;20217;-91
2024/01/25 02:59:26;;;;;;;4.30;2.80;;;;;;;-143.21;64.94;73508.19;4917807;29;20210;-92
2024/01/25 03:01:55;;;;;;;5.17;2.70;;;;;;;-143.21;64.94;73512.16;4914407;29;20303;-92
2024/01/25 03:04:22;;;;;;;5.60;3.33;;;;;;;-143.21;65.00;73484.38;4917412;29;20206;-92
2024/01/25 03:06:48;;;;;;;7.90;3.40;;;;;;;-143.21;66.22;73454.63;4922545;29;20205;-92
2024/01/25 03:09:15;;;;;;;9.20;3.33;;;;;;;-143.21;66.98;73436.75;4921089;29;20214;-91
2024/01/25 03:11:42;;;;;;;4.17;2.47;;;;;;;-143.21;67.27;73403.03;4914755;29;20219;-92
2024/01/25 03:14:11;;;;;;;4.97;2.30;;;;;;;-143.21;67.48;73379.22;4915836;29;20206;-93
2024/01/25 03:16:38;;;;;;;3.90;2.77;;;;;;;-143.21;66.48;73351.47;4923193;29;20580;-90
2024/01/25 03:19:04;;;;;;;3.83;2.37;;;;;;;-143.21;65.51;73337.56;4914905;29;20206;-91
2024/01/25 03:21:31;;;;;;;2.67;2.07;;;;;;;-143.21;65.48;73325.69;4917473;29;20202;-91
2024/01/25 03:23:58;;;;;;;5.00;2.47;;;;;;;-143.21;64.65;73299.88;4911073;29;20242;-91
2024/01/25 03:26:35;;;;;;;4.67;2.40;;;;;;;-143.21;64.50;73295.91;4937049;28;20221;-89
2024/01/25 03:29:01;;;;;;;4.50;2.40;;;;;;;-143.21;64.67;73291.94;4937621;28;20193;-91
2024/01/25 03:31:30;;;;;;;2.77;2.10;;;;;;;-143.21;65.06;73293.94;4938044;28;20246;-93
2024/01/25 03:33:57;;;;;;;5.50;2.20;;;;;;;-143.21;64.74;73301.88;4924815;29;20214;-91
2024/01/25 03:36:24;;;;;;;4.13;2.40;;;;;;;-143.21;64.91;73289.97;4926144;29;20203;-92
2024/01/25 03:38:52;;;;;;;3.97;2.30;;;;;;;-143.21;64.34;73291.94;4919508;29;20285;-91
2024/01/25 03:41:19;;;;;;;4.63;2.00;;;;;;;-143.21;63.73;73280.03;4920152;29;20202;-91
2024/01/25 03:43:46;;;;;;;2.87;1.80;;;;;;;-143.21;63.18;73276.06;4923085;29;20301;-92
2024/01/25 03:46:14;;;;;;;4.27;2.10;;;;;;;-143.21;62.71;73272.13;4925644;29;20228;-92
2024/01/25 03:48:42;;;;;;;3.33;2.60;;;;;;;-143.21;63.19;73299.88;4923617;29;20222;-92
2024/01/25 03:51:09;;;;;;;3.30;2.50;;;;;;;-143.21;63.41;73317.75;4916278;29;20247;-91
2024/01/25 03:53:36;;;;;;;5.03;3.13;;;;;;;-143.21;63.54;73309.81;4917285;29;20206;-90
2024/01/25 03:56:04;;;;;;;3.60;2.60;;;;;;;-143.21;63.47;73313.78;4914026;29;20329;-92
2024/01/25 03:58:31;;;;;;;5.10;2.53;;;;;;;-143.21;63.91;73301.88;4918128;29;20210;-91
2024/01/25 04:00:58;;;;;;;4.50;2.83;;;;;;;-143.21;63.46;73309.81;4912419;29;20444;-90
2024/01/25 04:03:25;;;;;;;6.97;2.90;;;;;;;-143.21;63.68;73309.81;4917325;29;20230;-90
2024/01/25 04:05:53;;;;;;;7.00;2.90;;;;;;;-143.21;64.00;73315.75;4920296;29;20198;-90
2024/01/25 04:08:20;;;;;;;4.47;2.40;;;;;;;-143.21;64.14;73313.78;4910452;29;20207;-89
2024/01/25 04:10:47;;;;;;;3.67;2.53;;;;;;;-143.21;63.71;73293.94;4900142;29;20203;-91
2024/01/25 04:13:14;;;;;;;7.77;2.90;;;;;;;-143.21;63.25;73280.03;4914571;29;20213;-91
2024/01/25 04:15:40;;;;;;;6.10;2.87;;;;;;;-143.21;63.22;73268.16;4920231;29;20198;-91
2024/01/25 04:18:07;;;;;;;5.40;2.87;;;;;;;-143.21;62.30;73258.22;4917321;29;20266;-90
2024/01/25 04:20:43;;;;;;;7.53;3.70;;;;;;;-143.21;61.98;73248.31;4919556;29;20732;-93
2024/01/25 04:23:29;;;;;;;9.47;4.30;;;;;;;-143.21;61.72;73244.34;4919288;29;20233;-92
2024/01/25 04:25:56;;;;;;;6.37;3.67;;;;;;;-143.21;61.15;73236.41;4921871;29;20572;-91
2024/01/25 04:28:23;;;;;;;7.23;4.30;;;;;;;-143.21;61.30;73242.34;4910578;29;20203;-92
2024/01/25 04:30:50;;;;;;;8.33;5.93;;;;;;;-143.21;61.26;73256.25;4911057;29;20218;-91
2024/01/25 04:33:16;;;;;;;7.43;5.07;;;;;;;-143.21;61.45;73264.19;4919589;29;20202;-91
2024/01/25 04:35:45;;;;;;;5.60;3.47;;;;;;;-143.21;61.98;73278.06;4925027;29;20209;-93
2024/01/25 04:38:13;;;;;;;8.03;3.60;;;;;;;-143.21;61.81;73278.06;4923377;29;20210;-92
2024/01/25 04:40:40;;;;;;;7.13;3.77;;;;;;;-143.21;61.28;73309.81;4928328;29;20682;-92
2024/01/25 04:43:07;;;;;;;8.30;4.60;;;;;;;-143.21;61.60;73325.69;4924772;29;20231;-91
2024/01/25 04:45:34;;;;;;;7.27;4.23;;;;;;;-143.21;61.97;73367.34;4924101;29;20207;-91
2024/01/25 04:48:00;;;;;;;6.60;4.60;;;;;;;-143.21;62.20;73367.34;4914272;29;20248;-93
2024/01/25 04:50:27;;;;;;;11.33;5.10;;;;;;;-143.21;62.08;73399.06;4917936;29;20200;-90
2024/01/25 04:52:54;;;;;;;11.70;6.00;;;;;;;-143.21;61.87;73412.97;4917763;29;20218;-89
2024/01/25 04:55:22;;;;;;;16.53;6.53;;;;;;;-143.21;61.99;73416.94;4921795;29;20623;-88
2024/01/25 04:57:53;;;;;;;9.30;5.20;;;;;;;-143.21;62.45;73438.75;4914835;29;20673;-90
2024/01/25 05:00:20;;;;;;;8.77;5.07;;;;;;;-143.21;62.86;73464.53;4919224;29;20286;-90
2024/01/25 05:02:46;;;;;;;8.70;4.83;;;;;;;-143.21;63.11;73478.41;4913859;29;20229;-91
2024/01/25 05:05:13;;;;;;;8.70;4.87;;;;;;;-143.21;63.12;73508.19;4916614;29;20286;-90
2024/01/25 05:07:40;;;;;;;9.50;4.90;;;;;;;-143.21;63.12;73510.16;4916538;29;20205;-89
2024/01/25 05:10:07;;;;;;;8.93;4.63;;;;;;;-143.21;62.43;73492.31;4916257;29;20277;-89
2024/01/25 05:12:36;;;;;;;6.77;4.30;;;;;;;-143.21;63.19;73508.19;4913721;29;20578;-89
2024/01/25 05:15:02;;;;;;;10.43;5.10;;;;;;;-143.21;63.72;73518.09;4920429;29;20712;-88
2024/01/25 05:17:29;;;;;;;8.07;5.00;;;;;;;-143.21;63.30;73516.13;4913258;29;20210;-90
2024/01/25 05:19:56;;;;;;;9.50;5.53;;;;;;;-143.21;63.37;73516.13;4909228;29;20210;-89
2024/01/25 05:22:23;;;;;;;10.67;5.97;;;;;;;-143.21;63.58;73512.16;4914363;29;20748;-90
2024/01/25 05:24:49;;;;;;;11.90;6.40;;;;;;;-143.21;63.67;73539.91;4911447;29;20269;-89
2024/01/25 05:27:16;;;;;;;10.10;5.30;;;;;;;-143.21;63.64;73516.13;4919438;29;20205;-89
2024/01/25 05:29:44;;;;;;;8.97;4.37;;;;;;;-143.21;63.46;73522.06;4911361;29;20210;-88
2024/01/25 05:32:11;;;;;;;6.87;4.43;;;;;;;-143.21;63.07;73506.19;4912216;29;20209;-90
2024/01/25 05:34:39;;;;;;;11.97;5.80;;;;;;;-143.21;62.79;73526.03;4916674;29;20198;-91
2024/01/25 05:37:05;;;;;;;9.60;5.27;;;;;;;-143.21;62.54;73502.22;4922782;29;20261;-90
2024/01/25 05:39:32;;;;;;;9.50;5.23;;;;;;;-143.21;61.83;73496.28;4920019;29;20203;-92
2024/01/25 05:41:59;;;;;;;13.37;6.10;;;;;;;-143.21;62.33;73506.19;4920269;29;20655;-89
2024/01/25 05:44:26;;;;;;;12.80;6.80;;;;;;;-143.21;62.36;73508.19;4918941;29;20245;-89
2024/01/25 05:46:54;;;;;;;7.50;4.80;;;;;;;-143.21;62.33;73496.28;4916420;29;20213;-90
2024/01/25 05:49:21;;;;;;;7.93;3.70;;;;;;;-143.21;62.01;73490.31;4919689;29;20228;-91
2024/01/25 05:51:47;;;;;;;13.70;6.60;;;;;;;-143.21;61.78;73474.47;4923489;29;20295;-93
2024/01/25 05:54:14;;;;;;;12.23;5.80;;;;;;;-143.21;60.79;73458.59;4918913;29;20349;-89
2024/01/25 05:56:41;;;;;;;11.33;5.67;;;;;;;-143.21;61.35;73474.47;4918073;29;20250;-89
2024/01/25 05:59:08;;;;;;;11.70;4.57;;;;;;;-143.21;61.17;73488.34;4915641;29;20673;-89
2024/01/25 06:01:34;;;;;;;7.83;4.17;;;;;;;-143.21;61.24;73486.34;4896985;29;20207;-90
2024/01/25 06:04:03;;;;;;;11.03;5.97;;;;;;;-143.21;61.51;73506.19;4919294;29;20293;-90
2024/01/25 06:06:30;;;;;;;13.17;5.67;;;;;;;-143.21;61.49;73498.25;4913289;29;20301;-90
2024/01/25 06:08:57;;;;;;;12.67;6.07;;;;;;;-143.21;61.40;73488.34;4913485;29;20291;-90
2024/01/25 06:11:24;;;;;;;13.13;6.27;;;;;;;-143.21;61.46;73506.19;4925326;29;20743;-88
2024/01/25 06:13:49;;;;;;;11.43;6.33;;;;;;;-143.21;61.74;73502.22;4921873;29;20210;-90
2024/01/25 06:16:17;;;;;;;15.27;8.57;;;;;;;-143.21;61.60;73496.28;4929215;29;20202;-90
2024/01/25 06:18:45;;;;;;;13.77;8.70;;;;;;;-143.21;61.63;73496.28;4920780;29;20211;-92
2024/01/25 06:21:14;;;;;;;16.17;8.57;;;;;;;-143.21;61.88;73510.16;4921559;29;20434;-90
2024/01/25 06:23:40;;;;;;;14.80;8.83;;;;;;;-143.21;61.96;73524.06;4915599;29;20235;-90
2024/01/25 06:26:08;;;;;;;20.67;8.13;;;;;;;-143.21;62.31;73532.00;4913854;29;20207;-90
2024/01/25 06:28:34;;;;;;;18.43;8.97;;;;;;;-143.21;61.83;73526.03;4932456;29;20227;-91
2024/01/25 06:31:02;;;;;;;18.37;10.10;;;;;;;-143.21;62.56;73539.91;4930423;29;20282;-89
2024/01/25 06:33:29;;;;;;;13.20;6.20;;;;;;;-143.21;62.58;73545.88;4928522;29;20206;-89
2024/01/25 06:35:59;;;;;;;16.27;8.73;;;;;;;-143.21;62.86;73557.78;4920807;29;20205;-89
2024/01/25 06:38:27;;;;;;;11.70;6.90;;;;;;;-143.21;63.33;73565.72;4918165;29;20202;-90
2024/01/25 06:40:54;;;;;;;14.80;7.77;;;;;;;-143.21;63.51;73563.72;4911950;29;20207;-89
2024/01/25 06:43:21;;;;;;;11.80;6.97;;;;;;;-143.21;63.45;73559.75;4914527;29;20229;-90
2024/01/25 06:45:47;;;;;;;10.83;6.23;;;;;;;-143.21;63.63;73551.81;4915507;29;20322;-89
2024/01/25 06:48:14;;;;;;;10.30;5.90;;;;;;;-143.21;63.42;73537.94;4919361;29;20229;-90
2024/01/25 06:50:41;;;;;;;13.87;7.83;;;;;;;-143.21;62.79;73537.94;4928911;29;20207;-90
2024/01/25 06:53:08;;;;;;;15.00;7.87;;;;;;;-143.21;62.79;73518.09;4915426;29;20213;-90
2024/01/25 06:55:36;;;;;;;16.17;8.77;;;;;;;-143.21;62.77;73526.03;4912513;29;20226;-90
2024/01/25 06:58:03;;;;;;;14.87;7.87;;;;;;;-143.21;62.59;73522.06;4920071;29;20205;-89
2024/01/25 07:00:30;;;;;;;10.93;7.13;;;;;;;-143.21;62.74;73537.94;4897995;29;20207;-89
2024/01/25 07:02:57;;;;;;;11.00;6.67;;;;;;;-143.21;62.75;73528.03;4911625;29;20258;-89
2024/01/25 07:05:24;;;;;;;10.53;6.77;;;;;;;-143.21;62.50;73504.22;4920710;29;20217;-88
2024/01/25 07:07:51;;;;;;;11.33;5.53;;;;;;;-143.21;61.60;73482.38;4915317;29;20621;-89
2024/01/25 07:10:18;;;;;;;7.80;4.20;;;;;;;-143.21;61.71;73486.34;4917680;29;20270;-90
2024/01/25 07:12:46;;;;;;;6.33;3.30;;;;;;;-143.21;61.04;73464.53;4919160;29;20215;-90
2024/01/25 07:15:13;;;;;;;10.13;4.13;;;;;;;-143.21;60.52;73446.69;4922841;29;20639;-89
2024/01/25 07:17:41;;;;;;;12.67;4.77;;;;;;;-143.21;60.50;73420.91;4923183;29;20217;-89
2024/01/25 07:20:08;;;;;;;7.43;4.53;;;;;;;-143.21;59.94;73416.94;4914137;29;20227;-90
2024/01/25 07:22:35;;;;;;;8.90;4.30;;;;;;;-143.21;60.05;73426.84;4919636;29;20203;-90
2024/01/25 07:25:02;;;;;;;10.73;4.87;;;;;;;-143.21;60.86;73450.66;4914385;29;20227;-90
2024/01/25 07:27:29;;;;;;;11.00;4.53;;;;;;;-143.21;60.66;73442.72;4927879;29;20190;-90
2024/01/25 07:29:58;;;;;;;10.93;4.33;;;;;;;-143.21;60.17;73424.84;4931662;29;20195;-89
2024/01/25 07:32:25;;;;;;;7.23;4.13;;;;;;;-143.21;59.76;73418.91;4934291;29;20214;-89
2024/01/25 07:34:52;;;;;;;9.93;4.90;;;;;;;-143.21;59.92;73432.78;4928201;29;20198;-89
2024/01/25 07:37:19;;;;;;;10.50;4.43;;;;;;;-143.21;59.58;73414.94;4921573;29;20653;-90
2024/01/25 07:39:46;;;;;;;12.97;5.60;;;;;;;-143.21;59.68;73414.94;4913989;29;20290;-90
2024/01/25 07:42:13;;;;;;;14.33;5.80;;;;;;;-143.21;59.60;73409.00;4920150;29;20285;-89
2024/01/25 07:44:40;;;;;;;15.67;6.40;;;;;;;-143.21;59.34;73403.03;4917165;29;20400;-90
2024/01/25 07:47:08;;;;;;;12.50;6.67;;;;;;;-143.21;60.10;73424.84;4917025;29;20685;-90
2024/01/25 07:49:35;;;;;;;14.30;6.10;;;;;;;-143.21;59.34;73412.97;4916146;29;20226;-90
2024/01/25 07:52:02;;;;;;;9.80;5.07;;;;;;;-143.21;58.95;73420.91;4916125;29;20333;-95
2024/01/25 07:54:29;;;;;;;13.83;5.83;;;;;;;-143.21;58.92;73432.78;4918812;29;20289;-90
2024/01/25 07:56:56;;;;;;;14.90;7.93;;;;;;;-143.21;59.29;73432.78;4910888;29;20218;-89
2024/01/25 07:59:22;;;;;;;13.77;5.43;;;;;;;-143.21;58.47;73420.91;4910067;29;20210;-89
2024/01/25 08:01:49;;;;;;;19.10;8.23;;;;;;;-143.21;58.17;73410.97;4912962;29;20324;-89
2024/01/25 08:04:17;;;;;;;12.33;5.70;;;;;;;-143.21;58.12;73418.91;4917358;29;20226;-90
2024/01/25 08:06:44;;;;;;;13.57;5.03;;;;;;;-143.21;58.22;73426.84;4914512;29;20830;-91
2024/01/25 08:09:11;;;;;;;12.97;7.07;;;;;;;-143.21;57.98;73414.94;4915632;29;20246;-89
2024/01/25 08:11:38;;;;;;;15.43;7.40;;;;;;;-143.21;57.63;73405.03;4910765;29;20298;-89
2024/01/25 08:14:05;;;;;;;19.77;8.20;;;;;;;-143.21;57.49;73399.06;4919630;29;20202;-90
2024/01/25 08:16:32;;;;;;;20.03;8.90;;;;;;;-143.21;57.74;73397.09;4915247;29;20266;-88
2024/01/25 08:18:59;;;;;;;12.87;7.33;;;;;;;-143.21;57.63;73407.00;4923786;23;20218;-91
2024/01/25 08:21:27;;;;;;;16.33;7.50;;;;;;;-143.21;56.74;73405.03;4936592;29;20182;-89
2024/01/25 08:23:54;;;;;;;17.60;8.07;;;;;;;-143.21;56.89;73403.03;4933254;29;20272;-90
2024/01/25 08:26:21;;;;;;;30.30;12.33;;;;;;;-143.21;56.18;73389.16;4919273;29;20246;-90
2024/01/25 08:28:48;;;;;;;24.63;12.17;;;;;;;-143.21;56.34;73379.22;4921281;29;20677;-90
2024/01/25 08:31:15;;;;;;;12.97;6.53;;;;;;;-143.21;55.77;73373.28;4928912;29;20602;-91
2024/01/25 08:33:44;;;;;;;13.13;6.10;;;;;;;-143.21;55.72;73371.28;4925760;29;20274;-92
2024/01/25 08:36:10;;;;;;;14.00;6.73;;;;;;;-143.21;55.71;73383.19;4925169;29;20289;-90
2024/01/25 08:38:39;;;;;;;16.03;7.10;;;;;;;-143.21;55.82;73381.22;4919989;29;20282;-90
2024/01/25 08:41:10;;;;;;;17.13;8.43;;;;;;;-143.21;55.58;73371.28;4898823;29;20215;-89
2024/01/25 08:43:38;;;;;;;16.97;8.23;;;;;;;-143.21;55.51;73379.22;4918661;29;20214;-91
2024/01/25 08:46:05;;;;;;;13.53;7.47;;;;;;;-143.21;55.82;73377.25;4920461;29;20199;-89
2024/01/25 08:48:32;;;;;;;18.03;7.70;;;;;;;-143.21;55.87;73389.16;4915676;29;20831;-89
2024/01/25 08:50:59;;;;;;;16.00;5.70;;;;;;;-143.21;55.39;73383.19;4917454;29;20202;-89
2024/01/25 08:53:27;;;;;;;12.07;4.80;;;;;;;-143.21;55.19;73383.19;4915569;29;20677;-88
2024/01/25 08:55:55;;;;;;;16.63;6.00;;;;;;;-143.21;55.68;73395.09;4920049;29;20202;-89
2024/01/25 08:58:22;;;;;;;11.70;6.10;;;;;;;-143.21;55.11;73377.25;4922039;29;20206;-88
2024/01/25 09:00:49;;;;;;;14.20;6.60;;;;;;;-143.21;54.86;73379.22;4917956;29;20207;-88
2024/01/25 09:03:16;;;;;;;15.03;5.60;;;;;;;-143.21;54.62;73373.28;4922489;29;20298;-89
2024/01/25 09:05:44;;;;;;;14.47;6.77;;;;;;;-143.21;55.26;73371.28;4916789;29;20235;-88
2024/01/25 09:08:12;;;;;;;14.17;6.30;;;;;;;-143.21;54.83;73375.25;4902908;29;20235;-88
2024/01/25 09:10:39;;;;;;;9.90;4.63;;;;;;;-143.21;54.77;73373.28;4916984;29;20635;-89
2024/01/25 09:13:08;;;;;;;13.90;6.37;;;;;;;-143.21;55.06;73365.34;4914888;29;20302;-88
2024/01/25 09:15:35;;;;;;;17.00;8.07;;;;;;;-143.21;55.47;73367.34;4912938;29;20267;-88
2024/01/25 09:18:01;;;;;;;15.27;8.00;;;;;;;-143.21;55.35;73373.28;4910628;29;20207;-88
2024/01/25 09:20:28;;;;;;;20.13;8.37;;;;;;;-143.21;55.42;73357.41;4912279;29;20231;-88
2024/01/25 09:22:55;;;;;;;19.70;8.77;;;;;;;-143.21;55.75;73363.38;4909773;29;20210;-90
2024/01/25 09:25:23;;;;;;;16.07;8.57;;;;;;;-143.21;55.06;73359.41;4916578;29;20618;-90
2024/01/25 09:27:50;;;;;;;26.27;11.47;;;;;;;-143.21;55.35;73357.41;4906697;29;20211;-89
2024/01/25 09:30:18;;;;;;;27.63;11.70;;;;;;;-143.21;54.78;73343.53;4911133;29;20208;-89
2024/01/25 09:32:45;;;;;;;33.17;12.13;;;;;;;-143.21;55.53;73351.47;4912851;29;20199;-91
2024/01/25 09:35:12;;;;;;;21.80;9.27;;;;;;;-143.21;55.77;73351.47;4925344;29;20629;-90
2024/01/25 09:37:39;;;;;;;25.90;7.60;;;;;;;-143.21;55.37;73337.56;4918461;29;20199;-90
2024/01/25 09:40:07;;;;;;;15.80;7.30;;;;;;;-143.21;55.92;73315.75;4914737;29;20203;-90
2024/01/25 09:42:35;;;;;;;14.17;6.27;;;;;;;-143.21;54.71;73307.81;4915760;29;20247;-90
2024/01/25 09:45:07;;;;;;;11.90;5.73;;;;;;;-143.21;54.42;73309.81;4915029;29;20230;-89
2024/01/25 09:47:40;;;;;;;19.93;7.00;;;;;;;-143.21;54.48;73293.94;4918487;29;20203;-89
2024/01/25 09:50:09;;;;;;;15.90;6.87;;;;;;;-143.21;54.57;73274.09;4912583;29;20713;-89
2024/01/25 09:52:36;;;;;;;13.67;7.93;;;;;;;-143.21;54.69;73278.06;4907855;29;20634;-87
2024/01/25 09:55:06;;;;;;;13.33;7.10;;;;;;;-143.21;55.26;73293.94;4916537;29;20206;-89
2024/01/25 09:57:36;;;;;;;17.20;7.40;;;;;;;-143.21;54.90;73295.91;4906114;29;20216;-88
2024/01/25 10:00:05;;;;;;;16.40;7.67;;;;;;;-143.21;55.61;73295.91;4910388;29;20636;-89
2024/01/25 10:02:32;;;;;;;15.80;7.47;;;;;;;-143.21;55.22;73287.97;4908971;29;20263;-89
2024/01/25 10:05:00;;;;;;;14.90;7.30;;;;;;;-143.21;55.58;73280.03;4906961;29;20226;-88
2024/01/25 10:07:40;;;;;;;13.03;6.00;;;;;;;-143.21;55.58;73284.00;4912455;29;20211;-89
2024/01/25 10:10:08;;;;;;;12.93;6.40;;;;;;;-143.21;55.46;73270.13;4919723;29;20266;-88
2024/01/25 10:12:35;;;;;;;11.93;5.60;;;;;;;-143.21;55.75;73248.31;4913303;29;20270;-89
2024/01/25 10:15:04;;;;;;;11.87;5.67;;;;;;;-143.21;54.47;73220.53;4925926;29;20290;-89
2024/01/25 10:17:31;;;;;;;11.93;5.47;;;;;;;-143.21;53.85;73200.69;4930623;29;20191;-88
2024/01/25 10:19:58;;;;;;;17.40;8.13;;;;;;;-143.21;53.56;73190.78;4925190;29;20227;-89
2024/01/25 10:22:27;;;;;;;12.53;6.57;;;;;;;-143.21;53.84;73198.72;4907395;29;20202;-88
2024/01/25 10:24:57;;;;;;;15.60;6.80;;;;;;;-143.21;53.86;73190.78;4900497;29;20318;-87
2024/01/25 10:27:23;;;;;;;13.03;6.30;;;;;;;-143.21;52.99;73174.91;4915928;29;20199;-90
2024/01/25 10:29:51;;;;;;;16.17;6.87;;;;;;;-143.21;53.14;73172.94;4915021;29;20199;-89
2024/01/25 10:32:18;;;;;;;13.27;5.67;;;;;;;-143.21;53.37;73163.00;4896676;29;20299;-90
2024/01/25 10:34:46;;;;;;;12.30;5.60;;;;;;;-143.21;54.30;73176.91;4909185;29;20209;-89
2024/01/25 10:37:15;;;;;;;9.67;4.90;;;;;;;-143.21;53.94;73180.88;4914732;29;20210;-89
2024/01/25 10:39:45;;;;;;;11.60;4.70;;;;;;;-143.21;54.98;73186.81;4915490;29;20608;-89
2024/01/25 10:42:12;;;;;;;9.37;4.47;;;;;;;-143.21;54.98;73190.78;4920114;29;20203;-90
2024/01/25 10:44:39;;;;;;;11.10;4.20;;;;;;;-143.21;55.19;73180.88;4915334;29;20235;-89
2024/01/25 10:47:06;;;;;;;9.97;4.57;;;;;;;-143.21;54.51;73176.91;4914855;29;20213;-90
2024/01/25 10:49:33;;;;;;;13.57;5.17;;;;;;;-143.21;55.25;73176.91;4914968;29;20708;-92
2024/01/25 10:52:00;;;;;;;17.70;5.60;;;;;;;-143.21;55.26;73178.88;4914696;29;20654;-88
2024/01/25 10:54:28;;;;;;;12.63;5.60;;;;;;;-143.21;54.73;73149.13;4915355;29;20258;-91
2024/01/25 10:57:11;;;;;;;11.00;5.67;;;;;;;-143.21;54.07;73143.16;4898945;29;20214;-90
2024/01/25 10:59:38;;;;;;;15.33;5.73;;;;;;;-143.21;53.98;73125.31;4910675;29;20203;-91
2024/01/25 11:02:06;;;;;;;12.03;5.77;;;;;;;-143.21;54.28;73125.31;4915003;29;20199;-90
2024/01/25 11:04:33;;;;;;;9.97;5.50;;;;;;;-143.21;53.70;73103.50;4914992;29;20854;-90
2024/01/25 11:07:08;;;;;;;14.37;6.53;;;;;;;-143.21;53.01;73107.47;4909944;29;20230;-91
2024/01/25 11:09:37;;;;;;;12.73;5.67;;;;;;;-143.21;52.50;73099.53;4879585;29;20573;-90
2024/01/25 11:12:13;;;;;;;14.10;5.70;;;;;;;-143.21;52.77;73097.56;4900598;29;20202;-90
2024/01/25 11:14:41;;;;;;;11.13;5.70;;;;;;;-143.21;52.60;73085.66;4911886;29;20198;-89
2024/01/25 11:17:20;;;;;;;15.17;5.60;;;;;;;-143.21;53.80;73059.88;4895983;29;20631;-89